KNBC

UTC

Beaufort MCAS - Merritt Field

Beaufort, South Carolina, United States

METAR - Current

KNBC 030456Z AUTO 00000KT 10SM FEW070 21/19 A2981 RMK AO2 SLP096 T02060194 402890183

Observed

Jun 03 04:56 UTC

Flight Rules

VFR

Visibility

10 SM

Clouds

  • Few at 7,000 ft AGL

Temperature

°C=°F

Dew Point

19°C=66°F

Humidity

88%

Altimeter

29.81 Hg

Pressure

1010.0 hPa

METAR - Previous

KNBC 030356Z AUTO 00000KT 10SM CLR 22/20 A2982 RMK AO2 SLP099 T02170200

Observed

Jun 03 03:56 UTC

Flight Rules

VFR

Visibility

10 SM

Clouds

  • Clear skies

Temperature

22°C=72°F

Dew Point

20°C=68°F

Humidity

88%

Altimeter

29.82 Hg

Pressure

1010.0 hPa